sensor_id;sensor_type;location;lat;lon;timestamp;pressure;altitude;pressure_sealevel;temperature
50496;BMP280;38806;51.554;5.704;2022-09-01T00:00:48;103373.13;;;15.31
50496;BMP280;38806;51.554;5.704;2022-09-01T00:02:48;103374.34;;;15.21
50496;BMP280;38806;51.554;5.704;2022-09-01T00:04:49;103344.63;;;15.08
50496;BMP280;38806;51.554;5.704;2022-09-01T00:06:52;103350.16;;;14.95
50496;BMP280;38806;51.554;5.704;2022-09-01T00:08:56;103271.41;;;14.99
50496;BMP280;38806;51.554;5.704;2022-09-01T00:10:56;103287.34;;;14.88
50496;BMP280;38806;51.554;5.704;2022-09-01T00:12:57;103246.69;;;14.88
50496;BMP280;38806;51.554;5.704;2022-09-01T00:14:57;103243.94;;;14.79
50496;BMP280;38806;51.554;5.704;2022-09-01T00:17:01;103270.19;;;14.51
50496;BMP280;38806;51.554;5.704;2022-09-01T00:19:02;103204.75;;;14.52
50496;BMP280;38806;51.554;5.704;2022-09-01T00:21:03;103192.72;;;14.53
50496;BMP280;38806;51.554;5.704;2022-09-01T00:23:03;103209.19;;;14.37
50496;BMP280;38806;51.554;5.704;2022-09-01T00:25:04;103223.41;;;14.19
50496;BMP280;38806;51.554;5.704;2022-09-01T00:27:05;103230.84;;;13.97
50496;BMP280;38806;51.554;5.704;2022-09-01T00:29:06;103209.84;;;13.79
50496;BMP280;38806;51.554;5.704;2022-09-01T00:31:07;103167.44;;;13.76
50496;BMP280;38806;51.554;5.704;2022-09-01T00:33:10;103171.94;;;13.57
50496;BMP280;38806;51.554;5.704;2022-09-01T00:35:10;103045.56;;;13.89
50496;BMP280;38806;51.554;5.704;2022-09-01T00:37:10;103057.19;;;13.98
50496;BMP280;38806;51.554;5.704;2022-09-01T00:39:11;103102.69;;;13.91
50496;BMP280;38806;51.554;5.704;2022-09-01T00:41:11;103087.94;;;13.83
50496;BMP280;38806;51.554;5.704;2022-09-01T00:43:34;103065.19;;;13.71
50496;BMP280;38806;51.554;5.704;2022-09-01T00:45:37;103009.31;;;13.77
50496;BMP280;38806;51.554;5.704;2022-09-01T00:47:38;103033.66;;;13.68
50496;BMP280;38806;51.554;5.704;2022-09-01T00:49:40;103028.66;;;13.66
50496;BMP280;38806;51.554;5.704;2022-09-01T00:51:45;102978.31;;;13.69
50496;BMP280;38806;51.554;5.704;2022-09-01T00:53:47;102943.94;;;13.79
50496;BMP280;38806;51.554;5.704;2022-09-01T00:55:48;103027.25;;;13.53
50496;BMP280;38806;51.554;5.704;2022-09-01T00:57:48;103029.69;;;13.29
50496;BMP280;38806;51.554;5.704;2022-09-01T00:59:56;102963.91;;;13.32
50496;BMP280;38806;51.554;5.704;2022-09-01T01:01:58;102920.72;;;13.41
50496;BMP280;38806;51.554;5.704;2022-09-01T01:03:58;102949.19;;;13.33
50496;BMP280;38806;51.554;5.704;2022-09-01T01:06:06;102915.53;;;13.25
50496;BMP280;38806;51.554;5.704;2022-09-01T01:08:08;102876.69;;;13.50
50496;BMP280;38806;51.554;5.704;2022-09-01T01:10:12;102911.78;;;13.31
50496;BMP280;38806;51.554;5.704;2022-09-01T01:12:14;102903.06;;;13.27
50496;BMP280;38806;51.554;5.704;2022-09-01T01:14:16;102934.06;;;13.14
50496;BMP280;38806;51.554;5.704;2022-09-01T01:16:17;102881.28;;;13.22
50496;BMP280;38806;51.554;5.704;2022-09-01T01:18:17;102873.47;;;13.15
50496;BMP280;38806;51.554;5.704;2022-09-01T01:20:20;102865.66;;;13.26
50496;BMP280;38806;51.554;5.704;2022-09-01T01:25:03;102833.00;;;13.51
50496;BMP280;38806;51.554;5.704;2022-09-01T01:27:03;102880.44;;;13.43
50496;BMP280;38806;51.554;5.704;2022-09-01T01:29:04;102858.22;;;13.48
50496;BMP280;38806;51.554;5.704;2022-09-01T01:31:11;102880.16;;;13.41
50496;BMP280;38806;51.554;5.704;2022-09-01T01:33:11;102891.94;;;13.25
50496;BMP280;38806;51.554;5.704;2022-09-01T01:35:14;102794.22;;;13.45
50496;BMP280;38806;51.554;5.704;2022-09-01T01:37:15;102831.50;;;13.50
50496;BMP280;38806;51.554;5.704;2022-09-01T01:39:20;102828.63;;;13.54
50496;BMP280;38806;51.554;5.704;2022-09-01T01:41:22;102775.47;;;13.78
50496;BMP280;38806;51.554;5.704;2022-09-01T01:43:23;102821.44;;;13.96
50496;BMP280;38806;51.554;5.704;2022-09-01T01:45:27;102800.53;;;14.15
50496;BMP280;38806;51.554;5.704;2022-09-01T01:47:27;102804.09;;;14.30
50496;BMP280;38806;51.554;5.704;2022-09-01T01:49:28;102872.69;;;14.18
50496;BMP280;38806;51.554;5.704;2022-09-01T01:51:30;102838.97;;;14.47
50496;BMP280;38806;51.554;5.704;2022-09-01T01:53:32;102893.44;;;14.39
50496;BMP280;38806;51.554;5.704;2022-09-01T01:55:33;102888.59;;;14.44
50496;BMP280;38806;51.554;5.704;2022-09-01T01:57:33;102908.47;;;14.40
50496;BMP280;38806;51.554;5.704;2022-09-01T01:59:34;102861.50;;;14.53
50496;BMP280;38806;51.554;5.704;2022-09-01T02:01:35;102913.16;;;14.40
50496;BMP280;38806;51.554;5.704;2022-09-01T02:03:36;102914.34;;;14.39
50496;BMP280;38806;51.554;5.704;2022-09-01T02:05:37;102907.44;;;14.47
50496;BMP280;38806;51.554;5.704;2022-09-01T02:07:38;102962.47;;;14.53
50496;BMP280;38806;51.554;5.704;2022-09-01T02:09:41;102952.25;;;14.48
50496;BMP280;38806;51.554;5.704;2022-09-01T02:11:45;102939.31;;;14.52
50496;BMP280;38806;51.554;5.704;2022-09-01T02:13:45;102997.56;;;14.29
50496;BMP280;38806;51.554;5.704;2022-09-01T02:15:51;102938.13;;;14.35
50496;BMP280;38806;51.554;5.704;2022-09-01T02:17:52;102976.00;;;14.26
50496;BMP280;38806;51.554;5.704;2022-09-01T02:19:59;102967.31;;;14.22
50496;BMP280;38806;51.554;5.704;2022-09-01T02:21:59;102998.09;;;14.06
50496;BMP280;38806;51.554;5.704;2022-09-01T02:24:04;103025.53;;;13.77
50496;BMP280;38806;51.554;5.704;2022-09-01T02:26:08;103038.63;;;13.48
50496;BMP280;38806;51.554;5.704;2022-09-01T02:28:12;102926.28;;;13.56
50496;BMP280;38806;51.554;5.704;2022-09-01T02:30:16;102954.94;;;13.44
50496;BMP280;38806;51.554;5.704;2022-09-01T02:32:16;102917.66;;;13.39
50496;BMP280;38806;51.554;5.704;2022-09-01T02:34:22;102935.06;;;13.29
50496;BMP280;38806;51.554;5.704;2022-09-01T02:36:24;102909.00;;;13.13
50496;BMP280;38806;51.554;5.704;2022-09-01T02:38:25;102859.59;;;13.13
50496;BMP280;38806;51.554;5.704;2022-09-01T02:40:28;102842.81;;;13.09
50496;BMP280;38806;51.554;5.704;2022-09-01T02:42:29;102838.44;;;13.11
50496;BMP280;38806;51.554;5.704;2022-09-01T02:44:30;102859.22;;;12.92
50496;BMP280;38806;51.554;5.704;2022-09-01T02:46:31;102833.59;;;12.97
50496;BMP280;38806;51.554;5.704;2022-09-01T02:48:34;102836.53;;;12.81
50496;BMP280;38806;51.554;5.704;2022-09-01T02:50:36;102898.78;;;12.55
50496;BMP280;38806;51.554;5.704;2022-09-01T02:52:37;102865.72;;;12.51
50496;BMP280;38806;51.554;5.704;2022-09-01T02:54:39;102797.97;;;12.58
50496;BMP280;38806;51.554;5.704;2022-09-01T02:56:39;102781.97;;;12.64
50496;BMP280;38806;51.554;5.704;2022-09-01T02:58:45;102814.41;;;12.42
50496;BMP280;38806;51.554;5.704;2022-09-01T03:00:51;102771.03;;;12.37
50496;BMP280;38806;51.554;5.704;2022-09-01T03:02:54;102804.47;;;12.17
50496;BMP280;38806;51.554;5.704;2022-09-01T03:04:55;102717.19;;;12.33
50496;BMP280;38806;51.554;5.704;2022-09-01T03:06:56;102693.69;;;12.52
50496;BMP280;38806;51.554;5.704;2022-09-01T03:08:58;102784.72;;;12.20
50496;BMP280;38806;51.554;5.704;2022-09-01T03:10:59;102831.13;;;11.93
50496;BMP280;38806;51.554;5.704;2022-09-01T03:13:03;102795.75;;;11.91
50496;BMP280;38806;51.554;5.704;2022-09-01T03:15:06;102755.53;;;11.84
50496;BMP280;38806;51.554;5.704;2022-09-01T03:17:06;102735.41;;;11.76
50496;BMP280;38806;51.554;5.704;2022-09-01T03:19:07;102638.31;;;11.98
50496;BMP280;38806;51.554;5.704;2022-09-01T03:21:09;102650.78;;;12.05
50496;BMP280;38806;51.554;5.704;2022-09-01T03:23:15;102678.75;;;11.98
50496;BMP280;38806;51.554;5.704;2022-09-01T03:25:16;102662.13;;;11.99
50496;BMP280;38806;51.554;5.704;2022-09-01T03:27:17;102633.69;;;12.08
50496;BMP280;38806;51.554;5.704;2022-09-01T03:29:18;102657.06;;;12.01
50496;BMP280;38806;51.554;5.704;2022-09-01T03:31:19;102589.53;;;12.23
50496;BMP280;38806;51.554;5.704;2022-09-01T03:33:21;102611.91;;;12.33
50496;BMP280;38806;51.554;5.704;2022-09-01T03:35:22;102653.38;;;12.48
50496;BMP280;38806;51.554;5.704;2022-09-01T03:37:24;102712.66;;;12.30
50496;BMP280;38806;51.554;5.704;2022-09-01T03:39:24;102729.69;;;12.18
50496;BMP280;38806;51.554;5.704;2022-09-01T03:41:27;102687.94;;;12.31
50496;BMP280;38806;51.554;5.704;2022-09-01T03:43:32;102709.03;;;12.24
50496;BMP280;38806;51.554;5.704;2022-09-01T03:45:33;102701.59;;;12.37
50496;BMP280;38806;51.554;5.704;2022-09-01T03:47:38;102763.84;;;12.12
50496;BMP280;38806;51.554;5.704;2022-09-01T03:49:39;102755.47;;;11.97
50496;BMP280;38806;51.554;5.704;2022-09-01T03:51:43;102697.56;;;12.11
50496;BMP280;38806;51.554;5.704;2022-09-01T03:53:44;102746.19;;;11.98
50496;BMP280;38806;51.554;5.704;2022-09-01T03:55:46;102795.78;;;11.79
50496;BMP280;38806;51.554;5.704;2022-09-01T03:57:46;102747.47;;;11.84
50496;BMP280;38806;51.554;5.704;2022-09-01T03:59:46;102764.53;;;11.68
50496;BMP280;38806;51.554;5.704;2022-09-01T04:01:47;102723.34;;;11.68
50496;BMP280;38806;51.554;5.704;2022-09-01T04:03:47;102755.25;;;11.48
50496;BMP280;38806;51.554;5.704;2022-09-01T04:05:49;102665.47;;;11.60
50496;BMP280;38806;51.554;5.704;2022-09-01T04:07:50;102670.72;;;11.63
50496;BMP280;38806;51.554;5.704;2022-09-01T04:09:50;102711.53;;;11.53
50496;BMP280;38806;51.554;5.704;2022-09-01T04:11:52;102666.66;;;11.59
50496;BMP280;38806;51.554;5.704;2022-09-01T04:13:52;102736.88;;;11.43
50496;BMP280;38806;51.554;5.704;2022-09-01T04:15:53;102671.41;;;11.55
50496;BMP280;38806;51.554;5.704;2022-09-01T04:17:55;102681.13;;;11.52
50496;BMP280;38806;51.554;5.704;2022-09-01T04:20:19;102705.69;;;11.32
50496;BMP280;38806;51.554;5.704;2022-09-01T04:22:20;102626.66;;;11.57
50496;BMP280;38806;51.554;5.704;2022-09-01T04:24:24;102678.31;;;11.56
50496;BMP280;38806;51.554;5.704;2022-09-01T04:26:27;102713.47;;;11.52
50496;BMP280;38806;51.554;5.704;2022-09-01T04:28:31;102708.28;;;11.58
50496;BMP280;38806;51.554;5.704;2022-09-01T04:30:33;102739.69;;;11.52
50496;BMP280;38806;51.554;5.704;2022-09-01T04:32:36;102787.28;;;11.33
50496;BMP280;38806;51.554;5.704;2022-09-01T04:34:38;102743.84;;;11.31
50496;BMP280;38806;51.554;5.704;2022-09-01T04:36:42;102679.78;;;11.35
50496;BMP280;38806;51.554;5.704;2022-09-01T04:39:03;102701.91;;;11.30
50496;BMP280;38806;51.554;5.704;2022-09-01T04:41:07;102716.69;;;11.25
50496;BMP280;38806;51.554;5.704;2022-09-01T04:43:08;102656.19;;;11.39
50496;BMP280;38806;51.554;5.704;2022-09-01T04:45:09;102702.66;;;11.30
50496;BMP280;38806;51.554;5.704;2022-09-01T04:47:10;102686.81;;;11.32
50496;BMP280;38806;51.554;5.704;2022-09-01T04:49:12;102749.66;;;11.17
50496;BMP280;38806;51.554;5.704;2022-09-01T04:51:15;102695.66;;;11.20
50496;BMP280;38806;51.554;5.704;2022-09-01T04:53:17;102663.53;;;11.39
50496;BMP280;38806;51.554;5.704;2022-09-01T04:55:18;102717.41;;;11.26
50496;BMP280;38806;51.554;5.704;2022-09-01T04:57:20;102699.22;;;11.30
50496;BMP280;38806;51.554;5.704;2022-09-01T04:59:23;102685.00;;;11.17
50496;BMP280;38806;51.554;5.704;2022-09-01T05:01:25;102703.88;;;11.04
50496;BMP280;38806;51.554;5.704;2022-09-01T05:03:26;102627.47;;;11.23
50496;BMP280;38806;51.554;5.704;2022-09-01T05:05:38;102668.38;;;11.18
50496;BMP280;38806;51.554;5.704;2022-09-01T05:07:38;102706.78;;;11.10
50496;BMP280;38806;51.554;5.704;2022-09-01T05:09:39;102694.72;;;11.14
50496;BMP280;38806;51.554;5.704;2022-09-01T05:11:40;102737.81;;;10.89
50496;BMP280;38806;51.554;5.704;2022-09-01T05:13:46;102616.16;;;11.16
50496;BMP280;38806;51.554;5.704;2022-09-01T05:15:47;102646.13;;;11.05
50496;BMP280;38806;51.554;5.704;2022-09-01T05:17:47;102642.16;;;10.97
50496;BMP280;38806;51.554;5.704;2022-09-01T05:19:48;102584.81;;;11.09
50496;BMP280;38806;51.554;5.704;2022-09-01T05:21:50;102574.34;;;11.24
50496;BMP280;38806;51.554;5.704;2022-09-01T05:23:51;102679.97;;;10.93
50496;BMP280;38806;51.554;5.704;2022-09-01T05:25:53;102624.16;;;11.07
50496;BMP280;38806;51.554;5.704;2022-09-01T05:27:56;102677.06;;;10.88
50496;BMP280;38806;51.554;5.704;2022-09-01T05:29:56;102672.22;;;10.83
50496;BMP280;38806;51.554;5.704;2022-09-01T05:31:59;102536.03;;;11.29
50496;BMP280;38806;51.554;5.704;2022-09-01T05:34:00;102584.72;;;11.34
50496;BMP280;38806;51.554;5.704;2022-09-01T05:36:03;102588.13;;;11.48
50496;BMP280;38806;51.554;5.704;2022-09-01T05:38:07;102579.91;;;11.51
50496;BMP280;38806;51.554;5.704;2022-09-01T05:40:10;102554.31;;;11.56
50496;BMP280;38806;51.554;5.704;2022-09-01T05:42:15;102538.56;;;11.76
50496;BMP280;38806;51.554;5.704;2022-09-01T05:44:15;102545.34;;;11.90
50496;BMP280;38806;51.554;5.704;2022-09-01T05:46:18;102504.69;;;12.24
50496;BMP280;38806;51.554;5.704;2022-09-01T05:48:19;102573.66;;;12.25
50496;BMP280;38806;51.554;5.704;2022-09-01T05:50:20;102593.25;;;12.17
50496;BMP280;38806;51.554;5.704;2022-09-01T05:52:21;102596.56;;;12.12
50496;BMP280;38806;51.554;5.704;2022-09-01T05:54:25;102564.78;;;12.16
50496;BMP280;38806;51.554;5.704;2022-09-01T05:56:28;102525.44;;;12.46
50496;BMP280;38806;51.554;5.704;2022-09-01T05:58:29;102619.22;;;12.23
50496;BMP280;38806;51.554;5.704;2022-09-01T06:00:29;102609.44;;;12.48
50496;BMP280;38806;51.554;5.704;2022-09-01T06:02:33;102582.16;;;12.64
50496;BMP280;38806;51.554;5.704;2022-09-01T06:04:34;102638.25;;;12.60
50496;BMP280;38806;51.554;5.704;2022-09-01T06:06:43;102604.34;;;12.77
50496;BMP280;38806;51.554;5.704;2022-09-01T06:08:49;102592.53;;;12.93
50496;BMP280;38806;51.554;5.704;2022-09-01T06:10:51;102654.63;;;12.75
50496;BMP280;38806;51.554;5.704;2022-09-01T06:12:51;102583.97;;;12.94
50496;BMP280;38806;51.554;5.704;2022-09-01T06:14:53;102548.84;;;13.22
50496;BMP280;38806;51.554;5.704;2022-09-01T06:16:54;102611.91;;;13.28
50496;BMP280;38806;51.554;5.704;2022-09-01T06:18:55;102615.19;;;13.23
50496;BMP280;38806;51.554;5.704;2022-09-01T06:20:56;102520.91;;;13.67
50496;BMP280;38806;51.554;5.704;2022-09-01T06:22:57;102664.84;;;13.80
50496;BMP280;38806;51.554;5.704;2022-09-01T06:24:58;102713.38;;;13.84
50496;BMP280;38806;51.554;5.704;2022-09-01T06:26:58;102700.91;;;13.86
50496;BMP280;38806;51.554;5.704;2022-09-01T06:29:02;102693.97;;;13.94
50496;BMP280;38806;51.554;5.704;2022-09-01T06:31:05;102730.19;;;13.88
50496;BMP280;38806;51.554;5.704;2022-09-01T06:33:06;102774.09;;;13.64
50496;BMP280;38806;51.554;5.704;2022-09-01T06:35:12;102743.75;;;13.69
50496;BMP280;38806;51.554;5.704;2022-09-01T06:37:14;102785.97;;;13.67
50496;BMP280;38806;51.554;5.704;2022-09-01T06:39:15;102775.94;;;13.67
50496;BMP280;38806;51.554;5.704;2022-09-01T06:41:21;102778.91;;;13.69
50496;BMP280;38806;51.554;5.704;2022-09-01T06:43:22;102774.56;;;13.72
50496;BMP280;38806;51.554;5.704;2022-09-01T06:45:23;102747.34;;;13.85
50496;BMP280;38806;51.554;5.704;2022-09-01T06:47:23;102716.81;;;13.93
50496;BMP280;38806;51.554;5.704;2022-09-01T06:49:24;102723.56;;;13.98
50496;BMP280;38806;51.554;5.704;2022-09-01T06:51:31;102684.81;;;14.25
50496;BMP280;38806;51.554;5.704;2022-09-01T06:53:33;102726.91;;;14.35
50496;BMP280;38806;51.554;5.704;2022-09-01T06:55:34;102737.97;;;14.55
50496;BMP280;38806;51.554;5.704;2022-09-01T06:57:37;102760.13;;;14.78
50496;BMP280;38806;51.554;5.704;2022-09-01T06:59:38;102724.44;;;15.03
50496;BMP280;38806;51.554;5.704;2022-09-01T07:01:38;102726.53;;;15.08
50496;BMP280;38806;51.554;5.704;2022-09-01T07:03:38;102733.94;;;15.22
50496;BMP280;38806;51.554;5.704;2022-09-01T07:05:46;102773.41;;;15.23
50496;BMP280;38806;51.554;5.704;2022-09-01T07:07:48;102744.16;;;15.27
50496;BMP280;38806;51.554;5.704;2022-09-01T07:09:50;102741.72;;;15.29
50496;BMP280;38806;51.554;5.704;2022-09-01T07:11:50;102735.75;;;15.40
50496;BMP280;38806;51.554;5.704;2022-09-01T07:13:57;102731.84;;;15.56
50496;BMP280;38806;51.554;5.704;2022-09-01T07:15:57;102729.56;;;15.69
50496;BMP280;38806;51.554;5.704;2022-09-01T07:17:58;102802.25;;;15.50
50496;BMP280;38806;51.554;5.704;2022-09-01T07:19:58;102759.97;;;15.58
50496;BMP280;38806;51.554;5.704;2022-09-01T07:21:59;102722.13;;;15.64
50496;BMP280;38806;51.554;5.704;2022-09-01T07:23:59;102740.63;;;15.51
50496;BMP280;38806;51.554;5.704;2022-09-01T07:26:04;102682.66;;;15.63
50496;BMP280;38806;51.554;5.704;2022-09-01T07:28:05;102703.19;;;15.69
50496;BMP280;38806;51.554;5.704;2022-09-01T07:30:06;102610.06;;;15.93
50496;BMP280;38806;51.554;5.704;2022-09-01T07:32:10;102715.75;;;15.96
50496;BMP280;38806;51.554;5.704;2022-09-01T07:34:11;102716.78;;;15.99
50496;BMP280;38806;51.554;5.704;2022-09-01T07:36:14;102679.63;;;16.05
50496;BMP280;38806;51.554;5.704;2022-09-01T07:38:14;102700.44;;;16.48
50496;BMP280;38806;51.554;5.704;2022-09-01T07:40:19;102765.19;;;16.50
50496;BMP280;38806;51.554;5.704;2022-09-01T07:42:21;102685.78;;;16.61
50496;BMP280;38806;51.554;5.704;2022-09-01T07:44:21;102684.69;;;16.93
50496;BMP280;38806;51.554;5.704;2022-09-01T07:46:23;102694.38;;;17.00
50496;BMP280;38806;51.554;5.704;2022-09-01T07:48:26;102662.03;;;17.02
50496;BMP280;38806;51.554;5.704;2022-09-01T07:50:27;102600.41;;;16.93
50496;BMP280;38806;51.554;5.704;2022-09-01T07:52:29;102636.03;;;17.26
50496;BMP280;38806;51.554;5.704;2022-09-01T07:54:30;102663.47;;;17.23
50496;BMP280;38806;51.554;5.704;2022-09-01T07:56:31;102655.97;;;17.44
50496;BMP280;38806;51.554;5.704;2022-09-01T07:58:31;102711.88;;;17.45
50496;BMP280;38806;51.554;5.704;2022-09-01T08:00:32;102693.53;;;17.71
50496;BMP280;38806;51.554;5.704;2022-09-01T08:02:33;102719.31;;;17.76
50496;BMP280;38806;51.554;5.704;2022-09-01T08:04:33;102655.53;;;17.88
50496;BMP280;38806;51.554;5.704;2022-09-01T08:06:34;102721.03;;;18.10
50496;BMP280;38806;51.554;5.704;2022-09-01T08:08:35;102707.78;;;17.92
50496;BMP280;38806;51.554;5.704;2022-09-01T08:10:40;102636.06;;;18.01
50496;BMP280;38806;51.554;5.704;2022-09-01T08:12:40;102639.09;;;18.08
50496;BMP280;38806;51.554;5.704;2022-09-01T08:14:41;102609.03;;;18.62
50496;BMP280;38806;51.554;5.704;2022-09-01T08:16:41;102758.19;;;18.56
50496;BMP280;38806;51.554;5.704;2022-09-01T08:18:42;102719.81;;;18.70
50496;BMP280;38806;51.554;5.704;2022-09-01T08:20:43;102694.34;;;18.79
50496;BMP280;38806;51.554;5.704;2022-09-01T08:22:47;102733.78;;;19.00
50496;BMP280;38806;51.554;5.704;2022-09-01T08:24:48;102698.09;;;19.21
50496;BMP280;38806;51.554;5.704;2022-09-01T08:26:48;102725.38;;;19.21
50496;BMP280;38806;51.554;5.704;2022-09-01T08:28:49;102682.97;;;19.31
50496;BMP280;38806;51.554;5.704;2022-09-01T08:30:49;102630.03;;;19.78
50496;BMP280;38806;51.554;5.704;2022-09-01T08:32:50;102427.84;;;20.79
50496;BMP280;38806;51.554;5.704;2022-09-01T08:34:50;102428.00;;;21.94
50496;BMP280;38806;51.554;5.704;2022-09-01T08:36:51;102521.47;;;22.54
50496;BMP280;38806;51.554;5.704;2022-09-01T08:38:51;102414.00;;;23.70
50496;BMP280;38806;51.554;5.704;2022-09-01T08:40:56;102498.53;;;23.64
50496;BMP280;38806;51.554;5.704;2022-09-01T08:45:19;102423.38;;;25.41
50496;BMP280;38806;51.554;5.704;2022-09-01T08:47:20;102365.28;;;25.77
50496;BMP280;38806;51.554;5.704;2022-09-01T08:49:23;102295.16;;;26.11
50496;BMP280;38806;51.554;5.704;2022-09-01T08:51:45;102283.47;;;26.85
50496;BMP280;38806;51.554;5.704;2022-09-01T08:56:25;102398.13;;;26.61
50496;BMP280;38806;51.554;5.704;2022-09-01T08:58:28;102379.75;;;26.88
50496;BMP280;38806;51.554;5.704;2022-09-01T09:00:37;102363.13;;;26.71
50496;BMP280;38806;51.554;5.704;2022-09-01T09:02:50;102275.09;;;27.51
50496;BMP280;38806;51.554;5.704;2022-09-01T09:05:06;102127.47;;;28.56
50496;BMP280;38806;51.554;5.704;2022-09-01T09:07:33;102257.00;;;28.48
50496;BMP280;38806;51.554;5.704;2022-09-01T09:09:46;102396.56;;;27.67
50496;BMP280;38806;51.554;5.704;2022-09-01T09:12:04;102254.28;;;28.67
50496;BMP280;38806;51.554;5.704;2022-09-01T09:16:36;102260.06;;;29.17
50496;BMP280;38806;51.554;5.704;2022-09-01T09:20:43;102201.91;;;29.67
50496;BMP280;38806;51.554;5.704;2022-09-01T09:22:46;102287.00;;;29.55
50496;BMP280;38806;51.554;5.704;2022-09-01T09:25:09;102258.50;;;29.74
50496;BMP280;38806;51.554;5.704;2022-09-01T09:27:15;102202.97;;;30.24
50496;BMP280;38806;51.554;5.704;2022-09-01T09:29:16;102291.91;;;29.86
50496;BMP280;38806;51.554;5.704;2022-09-01T09:31:30;102333.88;;;29.51
50496;BMP280;38806;51.554;5.704;2022-09-01T09:33:38;102246.53;;;29.81
50496;BMP280;38806;51.554;5.704;2022-09-01T09:35:43;102188.03;;;30.50
50496;BMP280;38806;51.554;5.704;2022-09-01T09:37:43;102178.72;;;30.78
50496;BMP280;38806;51.554;5.704;2022-09-01T09:39:44;102291.50;;;30.20
50496;BMP280;38806;51.554;5.704;2022-09-01T09:42:03;102256.50;;;30.36
50496;BMP280;38806;51.554;5.704;2022-09-01T09:44:15;102335.22;;;30.10
50496;BMP280;38806;51.554;5.704;2022-09-01T09:46:38;102387.81;;;30.08
50496;BMP280;38806;51.554;5.704;2022-09-01T09:48:39;102512.38;;;29.56
50496;BMP280;38806;51.554;5.704;2022-09-01T09:50:41;102156.03;;;31.27
50496;BMP280;38806;51.554;5.704;2022-09-01T09:52:43;102248.41;;;31.04
50496;BMP280;38806;51.554;5.704;2022-09-01T09:55:04;102479.41;;;29.98
50496;BMP280;38806;51.554;5.704;2022-09-01T09:59:38;102215.66;;;30.69
50496;BMP280;38806;51.554;5.704;2022-09-01T10:01:36;102313.19;;;31.06
50496;BMP280;38806;51.554;5.704;2022-09-01T10:03:45;102436.88;;;30.24
50496;BMP280;38806;51.554;5.704;2022-09-01T10:05:48;102480.44;;;30.22
50496;BMP280;38806;51.554;5.704;2022-09-01T10:07:51;102243.91;;;31.32
50496;BMP280;38806;51.554;5.704;2022-09-01T10:09:53;102206.03;;;31.71
50496;BMP280;38806;51.554;5.704;2022-09-01T10:11:56;102223.91;;;31.68
50496;BMP280;38806;51.554;5.704;2022-09-01T10:13:57;102245.19;;;31.75
50496;BMP280;38806;51.554;5.704;2022-09-01T10:16:02;102136.97;;;32.16
50496;BMP280;38806;51.554;5.704;2022-09-01T10:18:08;102105.09;;;32.31
50496;BMP280;38806;51.554;5.704;2022-09-01T10:20:17;102282.47;;;31.70
50496;BMP280;38806;51.554;5.704;2022-09-01T10:22:18;102451.25;;;30.52
50496;BMP280;38806;51.554;5.704;2022-09-01T10:24:34;102573.19;;;30.09
50496;BMP280;38806;51.554;5.704;2022-09-01T10:26:37;102439.00;;;30.45
50496;BMP280;38806;51.554;5.704;2022-09-01T10:28:49;102167.53;;;31.91
50496;BMP280;38806;51.554;5.704;2022-09-01T10:30:52;102191.44;;;32.19
50496;BMP280;38806;51.554;5.704;2022-09-01T10:32:58;102078.97;;;32.63
50496;BMP280;38806;51.554;5.704;2022-09-01T10:34:59;102202.09;;;32.59
50496;BMP280;38806;51.554;5.704;2022-09-01T10:37:02;102340.91;;;31.70
50496;BMP280;38806;51.554;5.704;2022-09-01T10:39:03;102512.53;;;30.44
50496;BMP280;38806;51.554;5.704;2022-09-01T10:41:09;102262.50;;;31.62
50496;BMP280;38806;51.554;5.704;2022-09-01T10:45:36;102266.66;;;31.96
50496;BMP280;38806;51.554;5.704;2022-09-01T10:47:38;102233.41;;;32.35
50496;BMP280;38806;51.554;5.704;2022-09-01T10:51:46;102246.59;;;32.34
50496;BMP280;38806;51.554;5.704;2022-09-01T10:53:48;102495.03;;;30.82
50496;BMP280;38806;51.554;5.704;2022-09-01T10:56:14;102280.06;;;31.99
50496;BMP280;38806;51.554;5.704;2022-09-01T11:00:48;101986.81;;;34.15
50496;BMP280;38806;51.554;5.704;2022-09-01T11:05:13;101936.09;;;34.21
50496;BMP280;38806;51.554;5.704;2022-09-01T11:09:21;102006.56;;;34.19
50496;BMP280;38806;51.554;5.704;2022-09-01T11:11:32;102064.56;;;34.21
50496;BMP280;38806;51.554;5.704;2022-09-01T11:13:42;102270.25;;;33.21
50496;BMP280;38806;51.554;5.704;2022-09-01T11:15:44;102142.19;;;33.52
50496;BMP280;38806;51.554;5.704;2022-09-01T11:20:03;102161.81;;;33.54
50496;BMP280;38806;51.554;5.704;2022-09-01T11:22:26;101910.06;;;34.98
50496;BMP280;38806;51.554;5.704;2022-09-01T11:26:46;101986.84;;;34.95
50496;BMP280;38806;51.554;5.704;2022-09-01T11:28:47;102001.31;;;35.07
50496;BMP280;38806;51.554;5.704;2022-09-01T11:30:52;102256.94;;;33.19
50496;BMP280;38806;51.554;5.704;2022-09-01T11:32:58;102201.81;;;33.45
50496;BMP280;38806;51.554;5.704;2022-09-01T11:35:15;102237.25;;;33.42
50496;BMP280;38806;51.554;5.704;2022-09-01T11:37:20;102434.56;;;32.22
50496;BMP280;38806;51.554;5.704;2022-09-01T11:39:39;102370.13;;;32.50
50496;BMP280;38806;51.554;5.704;2022-09-01T11:43:43;102347.00;;;32.36
50496;BMP280;38806;51.554;5.704;2022-09-01T11:45:53;102481.84;;;31.77
50496;BMP280;38806;51.554;5.704;2022-09-01T11:48:22;102072.91;;;34.05
50496;BMP280;38806;51.554;5.704;2022-09-01T11:50:33;102124.41;;;34.31
50496;BMP280;38806;51.554;5.704;2022-09-01T11:52:35;102132.63;;;34.27
50496;BMP280;38806;51.554;5.704;2022-09-01T11:54:39;102047.03;;;34.81
50496;BMP280;38806;51.554;5.704;2022-09-01T11:56:40;102160.53;;;34.41
50496;BMP280;38806;51.554;5.704;2022-09-01T11:58:41;102039.41;;;34.99
50496;BMP280;38806;51.554;5.704;2022-09-01T12:00:42;102008.38;;;35.08
50496;BMP280;38806;51.554;5.704;2022-09-01T12:02:45;101964.66;;;35.52
50496;BMP280;38806;51.554;5.704;2022-09-01T12:04:46;101905.75;;;35.86
50496;BMP280;38806;51.554;5.704;2022-09-01T12:06:58;102202.72;;;34.47
50496;BMP280;38806;51.554;5.704;2022-09-01T12:09:02;102431.75;;;32.80
50496;BMP280;38806;51.554;5.704;2022-09-01T12:11:34;102359.47;;;32.47
50496;BMP280;38806;51.554;5.704;2022-09-01T12:13:35;102450.75;;;32.13